Time;durP1;ratioP1;P1;durP2;ratioP2;P2;SDS_P1;SDS_P2;PMS_P1;PMS_P2;Temp;Humidity;BMP_temperature;BMP_pressure;BME280_temperature;BME280_humidity;BME280_pressure;Samples;Min_cycle;Max_cycle;Signal;HPM_P1;HPM_P2
2021/04/05 00:00:19;;;;;;;91.20;47.75;;;128.80;1817.60;;;;;;5064702;28;20078;-69
2021/04/05 00:02:45;;;;;;;77.22;41.58;;;128.80;1843.20;;;;;;5066249;28;20083;-69
2021/04/05 00:05:38;;;;;;;72.63;40.33;;;128.80;1843.20;;;;;;5065678;28;20409;-69
2021/04/05 00:08:05;;;;;;;78.93;42.08;;;128.80;1843.20;;;;;;5066483;28;20020;-69
2021/04/05 00:10:32;;;;;;;74.80;42.05;;;128.70;1843.20;;;;;;5066908;28;20375;-69
2021/04/05 00:13:00;;;;;;;60.92;34.55;;;128.60;1817.60;;;;;;5066572;28;20604;-70
2021/04/05 00:15:27;;;;;;;55.20;32.75;;;128.60;1843.20;;;;;;5064803;28;20167;-69
2021/04/05 00:17:53;;;;;;;49.05;29.50;;;128.50;1843.20;;;;;;5065522;28;20374;-69
2021/04/05 00:20:41;;;;;;;54.00;30.10;;;128.40;1843.20;;;;;;5066366;28;20027;-68
2021/04/05 00:23:07;;;;;;;70.30;35.58;;;128.40;1843.20;;;;;;5065268;28;20036;-68
2021/04/05 00:25:33;;;;;;;106.35;47.08;;;128.30;1843.20;;;;;;5063925;28;20025;-69
2021/04/05 00:28:01;;;;;;;88.57;40.20;;;128.30;1843.20;;;;;;5065680;28;20044;-69
2021/04/05 00:30:33;;;;;;;57.90;30.05;;;128.30;1843.20;;;;;;5073571;28;20031;-69
2021/04/05 00:33:00;;;;;;;63.55;33.17;;;128.20;1817.60;;;;;;5075823;28;20028;-69
2021/04/05 00:35:29;;;;;;;85.28;43.75;;;128.30;1843.20;;;;;;5075844;28;20024;-68
2021/04/05 00:37:56;;;;;;;78.72;40.90;;;128.10;1817.60;;;;;;5076168;28;20032;-69
2021/04/05 00:40:26;;;;;;;56.15;33.83;;;128.10;1817.60;;;;;;5075750;28;20025;-69
2021/04/05 00:42:52;;;;;;;60.53;34.55;;;128.00;1817.60;;;;;;5075458;28;20046;-68
2021/04/05 00:45:19;;;;;;;53.35;32.72;;;128.00;1817.60;;;;;;5075909;28;20024;-69
2021/04/05 00:47:47;;;;;;;50.33;30.30;;;128.00;1817.60;;;;;;5075690;28;20016;-70
2021/04/05 00:50:19;;;;;;;44.25;26.30;;;128.00;1817.60;;;;;;5075353;28;20040;-74
2021/04/05 00:52:53;;;;;;;36.47;22.90;;;128.00;1792.00;;;;;;5075477;28;20033;-74
2021/04/05 00:55:20;;;;;;;34.72;21.90;;;128.00;1792.00;;;;;;5075757;28;20127;-69
2021/04/05 00:57:46;;;;;;;36.38;19.13;;;128.00;1766.40;;;;;;5075449;28;20063;-70
2021/04/05 01:00:14;;;;;;;29.08;17.15;;;103.30;1740.80;;;;;;5075293;28;20021;-71
2021/04/05 01:02:40;;;;;;;28.88;17.25;;;103.30;1715.20;;;;;;5075385;28;20116;-71
2021/04/05 01:05:07;;;;;;;33.60;17.50;;;103.30;1715.20;;;;;;5075097;28;20462;-69
2021/04/05 01:07:32;;;;;;;26.90;15.63;;;103.30;1715.20;;;;;;5073971;28;20035;-70
2021/04/05 01:09:58;;;;;;;25.02;14.50;;;103.30;1715.20;;;;;;5075120;28;20029;-70
2021/04/05 01:12:24;;;;;;;22.83;14.30;;;103.30;1689.60;;;;;;5073672;28;20436;-72
2021/04/05 01:14:50;;;;;;;25.98;14.30;;;103.30;1689.60;;;;;;5074318;28;20377;-71
2021/04/05 01:17:15;;;;;;;23.25;14.57;;;128.00;1715.20;;;;;;5075136;28;20017;-70
2021/04/05 01:19:41;;;;;;;20.23;13.35;;;128.00;1689.60;;;;;;5075056;28;20017;-70
2021/04/05 01:22:07;;;;;;;18.40;12.35;;;103.30;1689.60;;;;;;5074904;28;20450;-69
2021/04/05 01:24:33;;;;;;;19.05;12.50;;;128.00;1689.60;;;;;;5074786;28;20031;-70
2021/04/05 01:26:58;;;;;;;16.05;11.38;;;128.00;1689.60;;;;;;5074673;28;20534;-70
2021/04/05 01:29:24;;;;;;;21.08;11.90;;;103.30;1664.00;;;;;;5074696;28;20074;-69
2021/04/05 01:31:50;;;;;;;16.02;11.65;;;103.30;1664.00;;;;;;5074565;28;20032;-70
2021/04/05 01:34:16;;;;;;;15.60;11.23;;;103.30;1664.00;;;;;;5074601;28;20043;-71
2021/04/05 01:36:42;;;;;;;20.02;11.45;;;103.20;1664.00;;;;;;5074395;28;20502;-69
2021/04/05 01:39:07;;;;;;;21.25;11.18;;;103.20;1664.00;;;;;;5074689;28;20036;-72
2021/04/05 01:41:33;;;;;;;18.80;12.02;;;103.20;1664.00;;;;;;5074533;28;20461;-69
2021/04/05 01:44:09;;;;;;;17.38;12.13;;;103.20;1664.00;;;;;;5074518;28;20085;-69
2021/04/05 01:46:35;;;;;;;18.83;11.68;;;103.10;1664.00;;;;;;5074558;28;20025;-72
2021/04/05 01:49:01;;;;;;;19.10;11.32;;;103.10;1664.00;;;;;;5074338;28;20484;-72
2021/04/05 01:51:27;;;;;;;18.27;12.02;;;103.10;1664.00;;;;;;5074365;28;20104;-69
2021/04/05 01:53:55;;;;;;;19.80;13.18;;;103.00;1664.00;;;;;;5074300;28;20159;-74
2021/04/05 01:56:22;;;;;;;32.65;20.60;;;103.00;1664.00;;;;;;5074356;28;20428;-73
2021/04/05 01:58:51;;;;;;;31.65;19.15;;;103.00;1664.00;;;;;;5073732;28;20043;-74
2021/04/05 02:01:23;;;;;;;31.58;17.80;;;103.00;1664.00;;;;;;5074088;28;20025;-69
2021/04/05 02:03:51;;;;;;;32.90;16.77;;;102.90;1689.60;;;;;;5074067;28;20038;-70
2021/04/05 02:06:16;;;;;;;33.90;18.00;;;102.90;1664.00;;;;;;5072861;28;20028;-73
2021/04/05 02:08:44;;;;;;;29.77;16.10;;;102.90;1689.60;;;;;;5074115;28;20417;-69
2021/04/05 02:11:14;;;;;;;32.75;15.80;;;102.90;1689.60;;;;;;5074091;28;20044;-72
2021/04/05 02:13:41;;;;;;;39.70;21.33;;;102.80;1689.60;;;;;;5073497;28;20035;-70
2021/04/05 02:16:07;;;;;;;40.78;20.55;;;102.80;1689.60;;;;;;5073880;28;20055;-72
2021/04/05 02:18:36;;;;;;;41.28;17.13;;;102.80;1715.20;;;;;;5073522;28;20058;-71
2021/04/05 02:21:01;;;;;;;31.17;14.75;;;102.80;1689.60;;;;;;5073939;28;20024;-71
2021/04/05 02:23:27;;;;;;;22.85;11.82;;;102.70;1689.60;;;;;;5074107;28;20455;-70
2021/04/05 02:26:10;;;;;;;27.55;13.43;;;102.60;1689.60;;;;;;5073528;28;20025;-69
2021/04/05 02:28:39;;;;;;;26.95;14.35;;;102.60;1689.60;;;;;;5073924;28;20021;-69
2021/04/05 02:31:05;;;;;;;21.80;12.02;;;102.60;1689.60;;;;;;5073901;28;20017;-70
2021/04/05 02:33:36;;;;;;;21.88;11.85;;;102.50;1715.20;;;;;;5073840;28;20024;-70
2021/04/05 02:36:02;;;;;;;15.18;10.65;;;102.50;1715.20;;;;;;5073509;28;20040;-70
2021/04/05 02:38:28;;;;;;;18.65;10.38;;;102.40;1715.20;;;;;;5073557;28;20490;-70
2021/04/05 02:40:54;;;;;;;16.45;10.98;;;102.40;1715.20;;;;;;5073770;28;20021;-70
2021/04/05 02:43:20;;;;;;;20.13;10.35;;;102.40;1715.20;;;;;;5073664;28;20119;-70
2021/04/05 02:45:46;;;;;;;16.33;10.57;;;102.40;1715.20;;;;;;5071723;28;20037;-70
2021/04/05 02:48:12;;;;;;;17.73;10.95;;;77.70;1715.20;;;;;;5073547;28;20071;-70
2021/04/05 02:50:38;;;;;;;18.23;10.77;;;77.70;1740.80;;;;;;5073460;28;20063;-70
2021/04/05 02:53:06;;;;;;;17.17;10.77;;;77.70;1715.20;;;;;;5073671;28;20036;-70
2021/04/05 02:55:36;;;;;;;19.38;11.60;;;77.70;1715.20;;;;;;5073506;28;20022;-70
2021/04/05 02:58:06;;;;;;;17.80;11.73;;;77.70;1740.80;;;;;;5073602;28;20070;-70
2021/04/05 03:00:33;;;;;;;21.55;11.60;;;77.60;1740.80;;;;;;5073841;28;20500;-73
2021/04/05 03:02:59;;;;;;;21.20;11.77;;;77.60;1740.80;;;;;;5073594;28;20063;-70
2021/04/05 03:05:26;;;;;;;20.67;12.10;;;77.50;1740.80;;;;;;5073232;28;20055;-67
2021/04/05 03:07:53;;;;;;;22.13;12.77;;;77.50;1740.80;;;;;;5073573;28;20024;-69
2021/04/05 03:10:22;;;;;;;28.58;16.52;;;77.50;1766.40;;;;;;5073725;28;20346;-69
2021/04/05 03:12:52;;;;;;;25.50;13.85;;;77.50;1740.80;;;;;;5073462;28;20036;-70
2021/04/05 03:15:18;;;;;;;20.48;13.05;;;77.50;1740.80;;;;;;5073453;28;20032;-72
2021/04/05 03:17:44;;;;;;;20.08;12.68;;;77.50;1740.80;;;;;;5073476;28;20051;-73
2021/04/05 03:20:19;;;;;;;22.48;12.82;;;77.40;1740.80;;;;;;5071962;28;20040;-69
2021/04/05 03:22:45;;;;;;;;;;;77.40;1766.40;;;;;;5073575;28;20478;-69
2021/04/05 03:25:22;;;;;;;20.90;11.50;;;77.40;1766.40;;;;;;5073308;28;19904;-68
2021/04/05 03:27:49;;;;;;;30.52;16.83;;;77.30;1766.40;;;;;;5073088;28;20052;-70
2021/04/05 03:30:28;;;;;;;32.80;18.67;;;77.30;1740.80;;;;;;5073233;28;20028;-69
2021/04/05 03:33:16;;;;;;;21.27;12.27;;;77.30;1766.40;;;;;;5077050;28;20025;-69
2021/04/05 03:35:45;;;;;;;21.00;11.88;;;77.30;1766.40;;;;;;5076147;28;20036;-73
2021/04/05 03:38:12;;;;;;;22.30;12.23;;;77.30;1766.40;;;;;;5076673;28;20035;-69
2021/04/05 03:40:42;;;;;;;21.95;12.13;;;77.30;1766.40;;;;;;5076985;28;20020;-69
2021/04/05 03:43:18;;;;;;;34.97;19.67;;;77.30;1766.40;;;;;;5076811;28;20033;-69
2021/04/05 03:45:48;;;;;;;41.83;24.70;;;77.30;1766.40;;;;;;5076695;28;20537;-74
2021/04/05 03:48:38;;;;;;;31.17;17.65;;;77.20;1766.40;;;;;;5076231;28;20046;-69
2021/04/05 03:51:09;;;;;;;26.27;15.38;;;77.20;1792.00;;;;;;5076578;28;20025;-70
2021/04/05 03:53:51;;;;;;;28.55;14.00;;;77.30;1792.00;;;;;;5076618;28;20066;-74
2021/04/05 03:56:19;;;;;;;27.13;15.00;;;77.20;1792.00;;;;;;5076435;28;20086;-70
2021/04/05 03:58:57;;;;;;;40.70;22.25;;;77.20;1766.40;;;;;;5076375;28;20370;-73
2021/04/05 04:01:29;;;;;;;59.58;29.15;;;77.20;1792.00;;;;;;5076612;28;20024;-69
2021/04/05 04:04:08;;;;;;;48.25;24.63;;;77.20;1766.40;;;;;;5076349;28;20036;-73
2021/04/05 04:09:02;;;;;;;44.17;19.90;;;77.20;1792.00;;;;;;5076801;28;20025;-73
2021/04/05 04:11:31;;;;;;;38.30;18.48;;;77.20;1792.00;;;;;;5076328;28;20385;-69
2021/04/05 04:14:00;;;;;;;32.03;16.70;;;77.20;1792.00;;;;;;5076357;28;20017;-69
2021/04/05 04:16:26;;;;;;;27.77;15.23;;;77.20;1817.60;;;;;;5076333;28;20027;-73
2021/04/05 04:18:52;;;;;;;24.58;15.55;;;77.20;1817.60;;;;;;5076018;28;20065;-69
2021/04/05 04:21:19;;;;;;;23.33;13.75;;;77.30;1817.60;;;;;;5076184;28;20103;-73
2021/04/05 04:23:45;;;;;;;26.35;15.35;;;77.30;1817.60;;;;;;5076022;28;20033;-73
2021/04/05 04:26:11;;;;;;;169.43;112.28;;;77.30;1843.20;;;;;;5075907;28;20056;-73
2021/04/05 04:28:42;;;;;;;277.75;164.52;;;77.30;1843.20;;;;;;5075885;28;20051;-73
2021/04/05 04:31:07;;;;;;;126.25;76.00;;;77.30;1843.20;;;;;;5076281;28;20434;-73
2021/04/05 04:33:33;;;;;;;290.23;189.23;;;77.30;1843.20;;;;;;5075863;28;20112;-69
2021/04/05 04:35:59;;;;;;;209.73;147.25;;;77.20;1843.20;;;;;;5075728;28;20048;-69
2021/04/05 04:38:26;;;;;;;124.50;90.20;;;77.20;1843.20;;;;;;5075620;28;20035;-70
2021/04/05 04:40:52;;;;;;;58.13;34.35;;;77.20;1868.80;;;;;;5075692;28;20020;-70
2021/04/05 04:43:19;;;;;;;38.25;24.85;;;77.30;1868.80;;;;;;5075335;28;20040;-73
2021/04/05 04:45:45;;;;;;;33.30;19.33;;;77.20;1868.80;;;;;;5075656;28;20059;-69
2021/04/05 04:48:11;;;;;;;34.83;18.55;;;77.20;1868.80;;;;;;5075622;28;20086;-73
2021/04/05 04:50:38;;;;;;;31.38;17.38;;;77.30;1868.80;;;;;;5075587;28;20049;-69
2021/04/05 04:53:04;;;;;;;26.95;16.60;;;77.30;1868.80;;;;;;5075624;28;20063;-73
2021/04/05 04:55:30;;;;;;;30.75;16.33;;;77.40;1868.80;;;;;;5075315;28;20046;-73
2021/04/05 04:58:01;;;;;;;41.90;21.13;;;77.40;1868.80;;;;;;5075479;28;20090;-69
2021/04/05 05:00:29;;;;;;;44.80;26.02;;;77.40;1868.80;;;;;;5075290;28;20024;-70
2021/04/05 05:02:56;;;;;;;31.20;20.08;;;77.50;1868.80;;;;;;5075098;28;20037;-69
2021/04/05 05:05:24;;;;;;;28.20;19.23;;;77.50;1868.80;;;;;;5075369;28;20385;-73
2021/04/05 05:07:51;;;;;;;29.75;20.95;;;77.50;1868.80;;;;;;5074927;28;20035;-73
2021/04/05 05:10:19;;;;;;;33.65;19.27;;;77.60;1868.80;;;;;;5073573;28;20028;-69
2021/04/05 05:12:45;;;;;;;27.08;15.60;;;77.60;1868.80;;;;;;5073531;28;20423;-70
2021/04/05 05:15:13;;;;;;;22.52;15.95;;;77.70;1868.80;;;;;;5074754;28;20078;-73
2021/04/05 05:17:46;;;;;;;24.38;15.25;;;77.70;1868.80;;;;;;5075219;28;20024;-73
2021/04/05 05:20:17;;;;;;;23.50;14.40;;;102.40;1843.20;;;;;;5074931;28;20355;-73
2021/04/05 05:22:45;;;;;;;19.63;12.40;;;102.40;1843.20;;;;;;5074890;28;20119;-73
2021/04/05 05:25:16;;;;;;;21.33;12.38;;;102.50;1817.60;;;;;;5074942;28;20035;-73
2021/04/05 05:27:46;;;;;;;20.70;12.55;;;102.50;1817.60;;;;;;5074917;28;20473;-72
2021/04/05 05:30:20;;;;;;;19.63;12.50;;;102.60;1817.60;;;;;;5074741;28;20027;-74
2021/04/05 05:32:47;;;;;;;25.63;14.57;;;102.60;1792.00;;;;;;5074542;28;20083;-68
2021/04/05 05:35:14;;;;;;;29.27;16.00;;;102.70;1792.00;;;;;;5074774;28;20032;-73
2021/04/05 05:37:40;;;;;;;24.98;14.23;;;102.70;1792.00;;;;;;5073026;28;20131;-69
2021/04/05 05:40:06;;;;;;;25.83;13.18;;;102.80;1792.00;;;;;;5074666;28;20111;-69
2021/04/05 05:42:45;;;;;;;23.05;14.15;;;102.90;1792.00;;;;;;5074515;28;20359;-69
2021/04/05 05:45:18;;;;;;;22.58;13.13;;;102.90;1792.00;;;;;;5074582;28;20013;-73
2021/04/05 05:48:18;;;;;;;22.73;12.77;;;103.00;1792.00;;;;;;5074598;28;20480;-74
2021/04/05 05:51:18;;;;;;;21.77;12.90;;;103.10;1792.00;;;;;;5074417;28;20115;-68
2021/04/05 05:54:21;;;;;;;17.88;11.95;;;103.20;1792.00;;;;;;5073736;28;20027;-70
2021/04/05 05:56:51;;;;;;;19.65;12.32;;;103.30;1792.00;;;;;;5074361;28;20040;-74
2021/04/05 05:59:40;;;;;;;19.45;11.98;;;128.00;1817.60;;;;;;5074362;28;20016;-73
2021/04/05 06:02:30;;;;;;;17.38;12.10;;;128.20;1817.60;;;;;;5074343;28;20064;-74
2021/04/05 06:05:22;;;;;;;23.60;12.98;;;128.30;1817.60;;;;;;5073065;28;20026;-68
2021/04/05 06:08:13;;;;;;;24.88;12.35;;;128.50;1792.00;;;;;;5070389;28;20493;-73
2021/04/05 06:11:22;;;;;;;24.02;13.93;;;128.60;1792.00;;;;;;5071990;28;20040;-68
2021/04/05 06:14:06;;;;;;;26.73;15.05;;;128.70;1766.40;;;;;;5073162;28;20082;-68
2021/04/05 06:17:04;;;;;;;24.95;14.07;;;128.90;1766.40;;;;;;5072523;28;20017;-74
2021/04/05 06:19:50;;;;;;;22.35;13.20;;;153.60;1740.80;;;;;;5069336;28;20032;-74
2021/04/05 06:22:28;;;;;;;21.75;13.68;;;153.80;1740.80;;;;;;5072762;28;20029;-70
2021/04/05 06:25:04;;;;;;;23.08;13.95;;;153.90;1715.20;;;;;;5072601;28;20074;-71
2021/04/05 06:27:50;;;;;;;65.72;30.30;;;154.00;1715.20;;;;;;5072322;28;20385;-76
2021/04/05 06:30:25;;;;;;;56.63;27.73;;;154.20;1715.20;;;;;;5072998;28;20020;-68
2021/04/05 06:33:26;;;;;;;56.45;26.88;;;154.40;1689.60;;;;;;5072991;28;20032;-69
2021/04/05 06:36:06;;;;;;;42.65;21.38;;;154.50;1689.60;;;;;;5030145;28;20038;-68
2021/04/05 06:38:38;;;;;;;39.75;20.92;;;179.40;1689.60;;;;;;5030129;28;20041;-76
2021/04/05 06:41:21;;;;;;;30.20;17.52;;;179.50;1664.00;;;;;;5029356;28;20080;-69
2021/04/05 06:44:24;;;;;;;39.47;24.65;;;179.70;1638.40;;;;;;5030456;28;20503;-69
2021/04/05 06:47:17;;;;;;;22.85;12.77;;;179.90;1638.40;;;;;;5030080;28;20061;-69
2021/04/05 06:50:05;;;;;;;28.90;13.18;;;180.10;1587.20;;;;;;5031456;28;20045;-76
2021/04/05 06:52:49;;;;;;;26.42;12.25;;;204.90;1536.00;;;;;;4992108;28;20155;-68
2021/04/05 06:55:27;;;;;;;23.67;11.18;;;205.20;1561.60;;;;;;4992350;28;20408;-78
2021/04/05 06:57:58;;;;;;;16.45;10.10;;;205.40;1536.00;;;;;;4992367;28;20035;-69
2021/04/05 07:00:56;;;;;;;26.55;11.45;;;205.60;1510.40;;;;;;4992305;28;20034;-71
2021/04/05 07:03:56;;;;;;;15.32;9.65;;;230.40;1484.80;;;;;;4953351;29;20043;-69
2021/04/05 07:06:41;;;;;;;16.83;9.70;;;230.60;1433.60;;;;;;4940514;28;20045;-76
2021/04/05 07:09:16;;;;;;;19.10;11.93;;;230.80;1408.00;;;;;;4956677;28;20118;-67
2021/04/05 07:11:47;;;;;;;34.33;24.15;;;231.00;1408.00;;;;;;4953085;29;20477;-68
2021/04/05 07:14:40;;;;;;;37.65;24.35;;;231.10;1382.40;;;;;;4955695;29;20039;-67
2021/04/05 07:17:13;;;;;;;23.17;16.33;;;231.30;1382.40;;;;;;4955793;28;20035;-76
2021/04/05 07:20:01;;;;;;;26.85;17.00;;;256.10;1331.20;;;;;;4957091;28;20132;-72
2021/04/05 07:23:03;;;;;;;24.33;14.38;;;256.40;1331.20;;;;;;4955716;29;20051;-77
2021/04/05 07:25:35;;;;;;;16.55;9.98;;;256.60;1305.60;;;;;;4954970;29;20110;-69
2021/04/05 07:28:16;;;;;;;14.48;8.88;;;256.90;1305.60;;;;;;4955337;28;20093;-71
2021/04/05 07:30:50;;;;;;;17.75;10.98;;;281.60;1305.60;;;;;;5021866;28;20068;-74
2021/04/05 07:33:19;;;;;;;19.52;11.43;;;281.80;1280.00;;;;;;5023063;28;20533;-69
2021/04/05 07:35:54;;;;;;;21.17;11.00;;;282.00;1280.00;;;;;;5022934;28;20030;-77
2021/04/05 07:38:50;;;;;;;19.33;10.68;;;282.20;1280.00;;;;;;5023358;28;20026;-69
2021/04/05 07:41:46;;;;;;;17.52;10.38;;;282.40;1254.40;;;;;;5063162;28;20032;-72
2021/04/05 07:44:40;;;;;;;20.17;11.07;;;307.20;1254.40;;;;;;5067208;28;20041;-68
2021/04/05 07:47:11;;;;;;;20.25;11.70;;;307.40;1254.40;;;;;;5063878;28;20466;-68
2021/04/05 07:49:44;;;;;;;20.67;12.73;;;307.60;1254.40;;;;;;5064716;28;20064;-67
2021/04/05 07:52:24;;;;;;;23.23;14.63;;;307.80;1228.80;;;;;;5064288;28;20487;-67
2021/04/05 07:54:51;;;;;;;20.73;12.52;;;307.90;1203.20;;;;;;5064230;28;20063;-73
2021/04/05 07:57:59;;;;;;;23.35;14.10;;;308.00;1203.20;;;;;;5065376;28;20416;-68
2021/04/05 08:00:43;;;;;;;18.48;11.77;;;332.80;1203.20;;;;;;5024721;28;20500;-73
2021/04/05 08:03:25;;;;;;;17.63;10.40;;;333.00;1177.60;;;;;;5007526;28;20395;-68
2021/04/05 08:06:07;;;;;;;21.83;10.73;;;333.10;1126.40;;;;;;5024438;28;20037;-69
2021/04/05 08:08:35;;;;;;;17.73;11.10;;;333.30;1126.40;;;;;;5023990;28;20541;-66
2021/04/05 08:11:31;;;;;;;18.98;10.23;;;333.30;1126.40;;;;;;5021164;28;20040;-67
2021/04/05 08:14:06;;;;;;;16.55;10.07;;;333.50;1100.80;;;;;;5023157;28;20387;-70
2021/04/05 08:17:01;;;;;;;22.00;11.20;;;333.60;1100.80;;;;;;5023790;28;20069;-70
2021/04/05 08:20:02;;;;;;;19.77;11.73;;;358.40;1075.20;;;;;;5024087;28;20060;-68
2021/04/05 08:23:04;;;;;;;14.25;9.10;;;358.60;1049.60;;;;;;4963292;28;20077;-73
2021/04/05 08:25:59;;;;;;;17.02;10.30;;;358.70;998.40;;;;;;4959654;28;20086;-68
2021/04/05 08:28:45;;;;;;;16.42;8.75;;;358.80;1024.00;;;;;;4912375;29;20047;-68
2021/04/05 08:31:29;;;;;;;25.00;10.00;;;358.90;998.40;;;;;;4914853;29;20052;-77
2021/04/05 08:34:13;;;;;;;22.23;10.82;;;359.00;1024.00;;;;;;4913349;29;20036;-70
2021/04/05 08:37:05;;;;;;;16.20;9.43;;;359.10;1024.00;;;;;;4914519;29;20044;-67
2021/04/05 08:39:49;;;;;;;21.15;8.02;;;359.30;998.40;;;;;;4899341;29;20592;-68
2021/04/05 08:42:39;;;;;;;26.13;8.40;;;384.00;972.80;;;;;;4913946;29;20075;-68
2021/04/05 08:45:20;;;;;;;16.80;8.10;;;384.20;947.20;;;;;;4915030;28;20024;-76
2021/04/05 08:48:11;;;;;;;11.85;8.18;;;384.30;947.20;;;;;;4912687;29;20044;-71
2021/04/05 08:50:42;;;;;;;13.15;6.80;;;384.50;870.40;;;;;;4876149;29;20059;-71
2021/04/05 08:53:09;;;;;;;10.63;7.30;;;384.50;870.40;;;;;;4876943;29;20037;-77
2021/04/05 08:55:37;;;;;;;10.65;6.50;;;384.70;870.40;;;;;;4887679;29;20046;-67
2021/04/05 08:58:16;;;;;;;54.83;11.00;;;384.80;844.80;;;;;;4936179;29;20501;-77
2021/04/05 09:00:47;;;;;;;36.03;9.60;;;409.60;870.40;;;;;;4935900;29;20099;-67
2021/04/05 09:03:18;;;;;;;13.07;6.90;;;409.70;896.00;;;;;;4936270;29;20432;-68
2021/04/05 09:05:45;;;;;;;20.42;6.63;;;409.80;870.40;;;;;;4960212;28;20031;-79
2021/04/05 09:08:12;;;;;;;23.08;7.28;;;409.80;819.20;;;;;;4974495;28;20503;-67
2021/04/05 09:11:05;;;;;;;14.50;7.90;;;410.00;844.80;;;;;;4974365;28;20027;-73
2021/04/05 09:13:39;;;;;;;19.60;9.85;;;410.00;819.20;;;;;;4974294;28;20030;-78
2021/04/05 09:16:42;;;;;;;124.63;43.85;;;410.10;819.20;;;;;;4974400;28;20026;-68
2021/04/05 09:19:12;;;;;;;28.88;14.98;;;410.30;819.20;;;;;;4974075;28;20504;-71
2021/04/05 09:21:46;;;;;;;26.38;14.20;;;410.30;819.20;;;;;;4974293;28;20027;-68
2021/04/05 09:24:33;;;;;;;15.93;10.40;;;410.40;793.60;;;;;;4974119;28;20049;-74
2021/04/05 09:27:30;;;;;;;18.05;8.07;;;410.50;768.00;;;;;;4994932;28;20037;-69
2021/04/05 09:30:29;;;;;;;13.95;9.40;;;410.50;768.00;;;;;;5012051;28;20041;-68
2021/04/05 09:33:33;;;;;;;52.72;13.57;;;435.20;793.60;;;;;;4973872;28;20074;-77
2021/04/05 09:36:19;;;;;;;16.83;7.97;;;435.30;793.60;;;;;;4897344;29;20548;-77
2021/04/05 09:39:01;;;;;;;20.20;6.90;;;435.40;768.00;;;;;;4897397;29;20052;-69
2021/04/05 09:42:07;;;;;;;19.67;6.78;;;435.50;768.00;;;;;;4897406;29;20040;-76
2021/04/05 09:45:08;;;;;;;13.35;6.70;;;435.60;768.00;;;;;;4897300;29;20173;-69
2021/04/05 09:48:16;;;;;;;15.65;8.20;;;435.60;742.40;;;;;;4859877;29;20056;-77
2021/04/05 09:51:33;;;;;;;13.32;7.05;;;435.70;768.00;;;;;;4860145;29;20109;-68
2021/04/05 09:54:09;;;;;;;29.98;7.82;;;435.70;768.00;;;;;;4823588;29;20038;-78
2021/04/05 09:56:44;;;;;;;12.88;7.53;;;435.80;716.80;;;;;;4823500;29;20058;-69
2021/04/05 09:59:13;;;;;;;8.73;6.32;;;435.90;742.40;;;;;;4823348;29;20038;-77
2021/04/05 10:01:40;;;;;;;14.32;7.20;;;435.90;742.40;;;;;;4823261;29;20098;-75
2021/04/05 10:04:13;;;;;;;9.15;7.25;;;435.90;716.80;;;;;;4823247;29;20153;-73
2021/04/05 10:06:40;;;;;;;46.35;9.32;;;435.90;716.80;;;;;;4840442;29;20089;-72
2021/04/05 10:09:07;;;;;;;14.45;9.00;;;435.90;742.40;;;;;;4869155;29;20088;-69
2021/04/05 10:11:38;;;;;;;9.80;6.72;;;435.90;742.40;;;;;;4916224;29;20060;-69
2021/04/05 10:14:10;;;;;;;12.98;7.60;;;435.90;768.00;;;;;;4920097;29;20516;-70
2021/04/05 10:16:37;;;;;;;20.20;10.05;;;436.00;742.40;;;;;;4922859;29;20035;-70
2021/04/05 10:19:25;;;;;;;24.38;8.60;;;436.00;742.40;;;;;;4924465;29;20027;-69
2021/04/05 10:21:57;;;;;;;10.77;7.22;;;436.00;742.40;;;;;;4924307;29;20039;-69
2021/04/05 10:24:23;;;;;;;14.23;9.95;;;460.80;768.00;;;;;;4944391;28;20030;-69
2021/04/05 10:26:52;;;;;;;20.73;10.10;;;460.80;768.00;;;;;;4962564;28;20086;-70
2021/04/05 10:29:19;;;;;;;11.05;7.78;;;460.90;768.00;;;;;;5003230;28;20269;-74
2021/04/05 10:31:48;;;;;;;20.38;9.80;;;460.90;742.40;;;;;;5062596;28;20021;-76
2021/04/05 10:34:16;;;;;;;25.55;9.90;;;461.00;742.40;;;;;;5061114;28;20025;-69
2021/04/05 10:36:47;;;;;;;16.65;10.07;;;461.10;742.40;;;;;;5063062;28;20048;-76
2021/04/05 10:39:14;;;;;;;25.95;11.65;;;461.10;742.40;;;;;;5063408;28;20051;-69
2021/04/05 10:41:52;;;;;;;19.05;9.25;;;461.10;742.40;;;;;;5060975;28;20467;-70
2021/04/05 10:44:22;;;;;;;16.90;8.32;;;461.30;742.40;;;;;;5061333;28;20135;-70
2021/04/05 10:46:57;;;;;;;11.70;8.23;;;461.30;742.40;;;;;;5061803;28;20059;-71
2021/04/05 10:49:27;;;;;;;21.88;8.07;;;461.30;742.40;;;;;;5060364;28;20419;-69
2021/04/05 10:52:06;;;;;;;21.48;8.50;;;461.30;742.40;;;;;;5063299;28;20032;-72
2021/04/05 10:54:45;;;;;;;14.18;7.88;;;461.30;716.80;;;;;;5063373;28;20021;-74
2021/04/05 10:57:25;;;;;;;14.30;8.90;;;461.20;742.40;;;;;;5061330;28;20024;-68
2021/04/05 10:59:56;;;;;;;23.50;9.52;;;461.20;742.40;;;;;;5061421;28;20044;-70
2021/04/05 11:02:26;;;;;;;16.50;9.00;;;461.20;742.40;;;;;;5072228;28;20485;-69
2021/04/05 11:04:59;;;;;;;12.15;7.63;;;461.00;768.00;;;;;;5070242;28;20086;-70
2021/04/05 11:07:29;;;;;;;14.00;8.25;;;461.00;768.00;;;;;;5070134;28;20078;-72
2021/04/05 11:09:57;;;;;;;11.73;8.15;;;461.00;742.40;;;;;;5070102;28;20502;-70
2021/04/05 11:12:29;;;;;;;11.35;8.95;;;460.90;742.40;;;;;;5070828;28;20024;-69
2021/04/05 11:14:57;;;;;;;11.90;7.57;;;461.00;742.40;;;;;;5071081;28;20043;-70
2021/04/05 11:17:24;;;;;;;21.48;7.65;;;461.00;742.40;;;;;;5070970;28;20020;-69
2021/04/05 11:19:55;;;;;;;13.25;7.80;;;461.10;742.40;;;;;;5071132;28;20020;-70
2021/04/05 11:22:25;;;;;;;18.98;7.90;;;461.10;742.40;;;;;;5069019;28;20166;-73
2021/04/05 11:25:04;;;;;;;11.95;6.70;;;461.20;716.80;;;;;;5071444;28;20024;-70
2021/04/05 11:27:31;;;;;;;12.32;6.70;;;461.20;716.80;;;;;;5070632;28;20418;-70
2021/04/05 11:30:02;;;;;;;16.38;7.65;;;461.20;691.20;;;;;;5070202;28;20485;-69
2021/04/05 11:32:29;;;;;;;13.68;6.97;;;461.20;691.20;;;;;;5069520;28;20035;-71
2021/04/05 11:34:59;;;;;;;37.30;7.57;;;461.20;691.20;;;;;;5069176;28;20028;-74
2021/04/05 11:37:31;;;;;;;17.73;7.28;;;461.20;691.20;;;;;;5068972;28;20057;-69
2021/04/05 11:40:10;;;;;;;16.25;7.05;;;461.20;691.20;;;;;;5070722;28;20051;-69
2021/04/05 11:42:42;;;;;;;14.45;6.88;;;461.30;691.20;;;;;;5068916;28;20033;-73
2021/04/05 11:45:09;;;;;;;11.70;5.93;;;461.30;691.20;;;;;;5071159;28;20033;-69
2021/04/05 11:47:41;;;;;;;10.18;5.88;;;461.40;691.20;;;;;;5070988;28;20025;-71
2021/04/05 11:50:16;;;;;;;11.38;5.25;;;461.30;665.60;;;;;;5069022;28;20021;-70
2021/04/05 11:52:47;;;;;;;12.32;6.57;;;461.50;691.20;;;;;;5072234;28;20507;-70
2021/04/05 11:55:40;;;;;;;22.80;7.22;;;461.50;691.20;;;;;;5073362;28;20068;-70
2021/04/05 11:58:30;;;;;;;18.65;7.85;;;461.50;665.60;;;;;;5072024;28;20104;-70
2021/04/05 12:01:03;;;;;;;11.80;6.72;;;461.60;691.20;;;;;;5072957;28;20024;-74
2021/04/05 12:03:43;;;;;;;18.27;7.03;;;461.60;691.20;;;;;;5073041;28;20039;-74
2021/04/05 12:06:31;;;;;;;12.45;6.43;;;461.60;691.20;;;;;;5073448;28;20405;-69
2021/04/05 12:09:02;;;;;;;13.65;6.78;;;461.60;691.20;;;;;;5031730;28;20041;-70
2021/04/05 12:11:32;;;;;;;13.40;6.18;;;461.60;665.60;;;;;;5031027;28;20041;-70
2021/04/05 12:14:20;;;;;;;9.48;7.15;;;461.60;665.60;;;;;;5032695;28;20079;-70
2021/04/05 12:16:52;;;;;;;10.93;6.53;;;461.60;665.60;;;;;;5032444;28;20105;-71
2021/04/05 12:19:30;;;;;;;13.30;6.95;;;461.60;665.60;;;;;;5015127;28;20029;-70
2021/04/05 12:21:57;;;;;;;40.75;8.13;;;461.60;665.60;;;;;;5032149;28;20013;-73
2021/04/05 12:24:30;;;;;;;12.02;7.32;;;461.60;665.60;;;;;;5032155;28;20029;-69
2021/04/05 12:26:58;;;;;;;12.52;6.45;;;461.60;665.60;;;;;;5031858;28;20491;-69
2021/04/05 12:29:26;;;;;;;11.30;6.65;;;461.60;665.60;;;;;;5032036;28;20034;-71
2021/04/05 12:31:53;;;;;;;8.35;6.75;;;461.60;691.20;;;;;;5032467;28;20049;-69
2021/04/05 12:34:25;;;;;;;15.07;7.18;;;461.60;691.20;;;;;;5031676;28;20164;-69
2021/04/05 12:36:51;;;;;;;12.25;7.93;;;461.60;691.20;;;;;;5031627;28;20096;-69
2021/04/05 12:39:17;;;;;;;10.55;6.72;;;461.70;665.60;;;;;;5030857;28;20571;-69
2021/04/05 12:41:45;;;;;;;10.40;7.25;;;461.60;665.60;;;;;;5019491;28;20029;-69
2021/04/05 12:44:42;;;;;;;8.07;6.93;;;486.40;691.20;;;;;;5019457;28;20029;-69